createdAt,value
2024-05-09T00:00:40.596Z,99.90
2024-05-09T00:03:10.244Z,99.90
2024-05-09T00:05:38.943Z,99.90
2024-05-09T00:08:08.612Z,99.90
2024-05-09T00:10:38.044Z,99.90
2024-05-09T00:13:07.489Z,99.90
2024-05-09T00:15:35.981Z,99.90
2024-05-09T00:18:04.173Z,99.90
2024-05-09T00:20:37.944Z,99.90
2024-05-09T00:23:12.506Z,99.90
2024-05-09T00:25:43.803Z,99.90
2024-05-09T00:28:12.271Z,99.90
2024-05-09T00:30:39.403Z,99.90
2024-05-09T00:33:08.279Z,99.90
2024-05-09T00:35:37.740Z,99.90
2024-05-09T00:38:07.520Z,99.90
2024-05-09T00:40:40.049Z,99.90
2024-05-09T00:43:11.241Z,99.90
2024-05-09T00:45:38.614Z,99.90
2024-05-09T00:48:08.277Z,99.90
2024-05-09T00:50:39.889Z,99.90
2024-05-09T00:53:11.455Z,99.90
2024-05-09T00:55:39.361Z,99.90
2024-05-09T00:58:08.929Z,99.90
2024-05-09T01:00:39.715Z,99.90
2024-05-09T01:03:10.905Z,99.90
2024-05-09T01:05:40.215Z,99.90
2024-05-09T01:08:08.020Z,99.90
2024-05-09T01:10:36.380Z,99.90
2024-05-09T01:13:04.924Z,99.90
2024-05-09T01:15:32.973Z,99.90
2024-05-09T01:18:04.197Z,99.90
2024-05-09T01:20:41.016Z,99.90
2024-05-09T01:23:15.250Z,99.90
2024-05-09T01:25:44.333Z,99.90
2024-05-09T01:28:11.486Z,99.90
2024-05-09T01:30:38.882Z,99.90
2024-05-09T01:33:08.679Z,99.90
2024-05-09T01:35:37.731Z,99.90
2024-05-09T01:38:07.412Z,99.90
2024-05-09T01:40:38.585Z,99.90
2024-05-09T01:43:09.334Z,99.90
2024-05-09T01:45:37.814Z,99.90
2024-05-09T01:48:05.577Z,99.90
2024-05-09T01:50:38.381Z,99.90
2024-05-09T01:53:13.177Z,99.90
2024-05-09T01:55:40.953Z,99.90
2024-05-09T01:58:08.842Z,99.90
2024-05-09T02:00:40.324Z,99.90
2024-05-09T02:03:16.062Z,99.90
2024-05-09T02:05:46.562Z,99.90
2024-05-09T02:08:15.754Z,99.90
2024-05-09T02:10:46.871Z,99.90
2024-05-09T02:13:14.907Z,99.90
2024-05-09T02:15:44.990Z,99.90
2024-05-09T02:18:12.814Z,99.90
2024-05-09T02:20:41.326Z,99.90
2024-05-09T02:23:09.266Z,99.90
2024-05-09T02:25:36.473Z,99.90
2024-05-09T02:28:03.548Z,99.90
2024-05-09T02:30:39.411Z,99.90
2024-05-09T02:33:10.799Z,99.90
2024-05-09T02:35:39.904Z,99.90
2024-05-09T02:38:06.979Z,99.90
2024-05-09T02:40:37.892Z,99.90
2024-05-09T02:43:08.058Z,99.90
2024-05-09T02:45:35.554Z,99.90
2024-05-09T02:48:02.932Z,99.90
2024-05-09T02:50:37.148Z,99.90
2024-05-09T02:53:07.620Z,99.90
2024-05-09T02:55:35.107Z,99.90
2024-05-09T02:58:02.198Z,99.90
2024-05-09T03:00:37.102Z,99.90
2024-05-09T03:03:09.473Z,99.90
2024-05-09T03:05:38.183Z,99.90
2024-05-09T03:08:05.692Z,99.90
2024-05-09T03:10:38.108Z,99.90
2024-05-09T03:13:15.427Z,99.90
2024-05-09T03:15:44.002Z,99.90
2024-05-09T03:18:11.839Z,99.90
2024-05-09T03:20:39.744Z,99.90
2024-05-09T03:23:09.482Z,99.90
2024-05-09T03:25:37.678Z,99.90
2024-05-09T03:28:04.996Z,99.90
2024-05-09T03:30:39.890Z,99.90
2024-05-09T03:33:18.707Z,99.90
2024-05-09T03:35:47.623Z,99.90
2024-05-09T03:38:14.889Z,99.90
2024-05-09T03:40:49.899Z,99.90
2024-05-09T03:43:18.149Z,99.90
2024-05-09T03:45:47.826Z,99.90
2024-05-09T03:48:15.130Z,99.90
2024-05-09T03:50:42.607Z,99.90
2024-05-09T03:53:14.439Z,99.90
2024-05-09T03:55:41.988Z,99.90
2024-05-09T03:58:09.584Z,99.90
2024-05-09T04:00:40.301Z,99.90
2024-05-09T04:03:10.918Z,99.90
2024-05-09T04:05:41.762Z,99.90
2024-05-09T04:08:11.008Z,99.90
2024-05-09T04:10:41.330Z,99.90
2024-05-09T04:13:09.306Z,99.90
2024-05-09T04:15:36.326Z,99.90
2024-05-09T04:18:03.642Z,99.90
2024-05-09T04:20:38.126Z,99.90
2024-05-09T04:23:11.054Z,99.90
2024-05-09T04:25:38.571Z,99.90
2024-05-09T04:28:05.919Z,99.90
2024-05-09T04:30:38.297Z,99.90
2024-05-09T04:33:10.896Z,99.90
2024-05-09T04:35:42.600Z,99.90
2024-05-09T04:38:10.265Z,99.90
2024-05-09T04:40:37.916Z,99.90
2024-05-09T04:43:06.902Z,99.90
2024-05-09T04:45:35.152Z,99.90
2024-05-09T04:48:02.847Z,99.90
2024-05-09T04:50:36.561Z,99.90
2024-05-09T04:53:11.882Z,99.90
2024-05-09T04:55:40.476Z,99.90
2024-05-09T04:58:11.797Z,99.90
2024-05-09T05:00:40.571Z,99.90
2024-05-09T05:03:13.174Z,99.90
2024-05-09T05:05:42.643Z,99.90
2024-05-09T05:08:17.862Z,99.90
2024-05-09T05:10:46.432Z,99.90
2024-05-09T05:13:20.273Z,99.90
2024-05-09T05:15:53.609Z,99.90
2024-05-09T05:18:21.698Z,99.90
2024-05-09T05:20:49.226Z,99.90
2024-05-09T05:23:19.155Z,99.90
2024-05-09T05:25:49.310Z,99.90
2024-05-09T05:28:17.124Z,99.90
2024-05-09T05:30:45.220Z,99.90
2024-05-09T05:33:14.269Z,99.90
2024-05-09T05:35:44.285Z,99.90
2024-05-09T05:38:11.582Z,99.90
2024-05-09T05:40:39.920Z,99.90
2024-05-09T05:43:09.591Z,99.90
2024-05-09T05:45:37.186Z,99.90
2024-05-09T05:48:06.372Z,99.90
2024-05-09T05:50:36.810Z,99.90
2024-05-09T05:53:10.086Z,99.90
2024-05-09T05:55:41.165Z,99.90
2024-05-09T05:58:12.323Z,99.90
2024-05-09T06:00:41.437Z,99.90
2024-05-09T06:03:10.145Z,99.90
2024-05-09T06:05:40.349Z,99.90
2024-05-09T06:08:08.367Z,99.90
2024-05-09T06:10:39.215Z,99.90
2024-05-09T06:13:11.259Z,99.90
2024-05-09T06:15:38.813Z,99.90
2024-05-09T06:18:10.147Z,99.90
2024-05-09T06:20:39.766Z,99.90
2024-05-09T06:23:08.043Z,99.90
2024-05-09T06:25:36.090Z,99.90
2024-05-09T06:28:03.292Z,99.90
2024-05-09T06:30:37.892Z,99.90
2024-05-09T06:33:13.083Z,99.90
2024-05-09T06:35:42.398Z,99.90
2024-05-09T06:38:09.920Z,99.90
2024-05-09T06:40:41.277Z,99.90
2024-05-09T06:43:18.397Z,99.90
2024-05-09T06:45:52.631Z,99.90
2024-05-09T06:48:21.046Z,99.50
2024-05-09T06:50:48.934Z,99.90
2024-05-09T06:53:17.023Z,99.90
2024-05-09T06:55:44.097Z,99.90
2024-05-09T06:58:13.289Z,99.90
2024-05-09T07:00:41.786Z,99.50
2024-05-09T07:03:11.020Z,98.80
2024-05-09T07:05:39.224Z,98.50
2024-05-09T07:08:06.811Z,98.00
2024-05-09T07:10:40.247Z,96.80
2024-05-09T07:13:10.689Z,97.40
2024-05-09T07:15:38.121Z,97.60
2024-05-09T07:18:20.054Z,98.10
2024-05-09T07:20:50.955Z,97.80
2024-05-09T07:23:18.565Z,95.80
2024-05-09T07:31:02.861Z,96.70
2024-05-09T07:33:30.613Z,91.00
2024-05-09T07:35:58.625Z,90.40
2024-05-09T07:54:13.791Z,80.40
2024-05-09T07:56:40.936Z,78.60
2024-05-09T07:59:08.073Z,73.60
2024-05-09T08:01:37.706Z,74.20
2024-05-09T08:04:04.881Z,73.50
2024-05-09T08:06:32.430Z,72.70
2024-05-09T08:09:05.457Z,72.30
2024-05-09T08:11:35.311Z,74.00
2024-05-09T08:14:02.225Z,72.10
2024-05-09T08:16:29.279Z,70.30
2024-05-09T08:18:56.478Z,67.50
2024-05-09T08:21:23.564Z,66.00
2024-05-09T08:23:50.514Z,66.50
2024-05-09T08:26:17.558Z,67.40
2024-05-09T08:28:44.477Z,66.80
2024-05-09T08:31:14.497Z,66.00
2024-05-09T08:33:48.517Z,64.30
2024-05-09T08:36:15.615Z,63.10
2024-05-09T08:38:42.559Z,63.70
2024-05-09T08:41:16.408Z,61.70
2024-05-09T08:43:44.667Z,61.40
2024-05-09T08:46:13.376Z,61.70
2024-05-09T08:48:43.340Z,64.30
2024-05-09T08:51:10.467Z,64.90
2024-05-09T08:53:37.672Z,67.20
2024-05-09T08:56:09.358Z,64.20
2024-05-09T08:58:37.454Z,62.40
2024-05-09T09:01:05.202Z,62.00
2024-05-09T09:03:36.571Z,62.30
2024-05-09T09:06:10.667Z,63.90
2024-05-09T09:08:39.572Z,64.60
2024-05-09T09:11:06.711Z,63.40
2024-05-09T09:13:35.850Z,62.60
2024-05-09T09:16:03.667Z,62.70
2024-05-09T09:18:31.961Z,63.70
2024-05-09T09:20:59.027Z,63.50
2024-05-09T09:24:09.896Z,62.30
2024-05-09T09:26:36.960Z,59.70
2024-05-09T09:29:06.059Z,56.10
2024-05-09T09:31:35.307Z,55.40
2024-05-09T09:34:09.534Z,55.70
2024-05-09T09:36:40.809Z,56.30
2024-05-09T09:39:09.410Z,58.00
2024-05-09T09:41:38.106Z,52.20
2024-05-09T09:44:10.385Z,55.30
2024-05-09T09:46:38.374Z,50.60
2024-05-09T09:49:09.377Z,50.80
2024-05-09T09:51:37.024Z,51.40
2024-05-09T09:54:06.003Z,52.00
2024-05-09T09:56:33.868Z,52.30
2024-05-09T09:59:04.498Z,51.00
2024-05-09T10:01:31.908Z,50.90
2024-05-09T10:03:59.267Z,50.40
2024-05-09T10:06:28.395Z,48.90
2024-05-09T10:08:56.338Z,50.40
2024-05-09T10:11:25.791Z,50.80
2024-05-09T10:13:54.027Z,50.00
2024-05-09T10:16:24.423Z,46.30
2024-05-09T10:18:51.921Z,45.50
2024-05-09T10:21:20.388Z,47.20
2024-05-09T10:24:19.113Z,46.20
2024-05-09T10:26:55.431Z,49.10
2024-05-09T10:29:24.199Z,49.30
2024-05-09T10:31:51.396Z,49.70
2024-05-09T10:34:27.860Z,49.50
2024-05-09T10:36:55.494Z,50.50
2024-05-09T10:39:22.827Z,47.70
2024-05-09T10:41:52.788Z,45.00
2024-05-09T10:44:21.743Z,45.20
2024-05-09T10:46:50.425Z,48.80
2024-05-09T10:49:17.835Z,47.20
2024-05-09T10:51:45.543Z,49.10
2024-05-09T10:54:12.664Z,47.70
2024-05-09T10:56:39.892Z,47.70
2024-05-09T10:59:06.906Z,46.20
2024-05-09T11:01:34.160Z,43.60
2024-05-09T11:04:04.082Z,43.90
2024-05-09T11:06:31.322Z,42.60
2024-05-09T11:08:58.497Z,45.10
2024-05-09T11:11:26.377Z,43.70
2024-05-09T11:13:53.327Z,44.00
2024-05-09T11:16:21.422Z,42.30
2024-05-09T11:18:56.592Z,44.20
2024-05-09T11:21:24.583Z,44.90
2024-05-09T11:23:52.377Z,45.10
2024-05-09T11:26:21.637Z,45.50
2024-05-09T11:28:50.644Z,42.70
2024-05-09T11:31:18.203Z,39.40
2024-05-09T11:33:45.835Z,40.30
2024-05-09T11:36:13.806Z,41.30
2024-05-09T11:38:41.006Z,38.20
2024-05-09T11:41:08.293Z,40.00
2024-05-09T11:43:35.339Z,40.20
2024-05-09T11:46:03.800Z,38.20
2024-05-09T11:48:31.713Z,40.10
2024-05-09T11:50:58.930Z,41.40
2024-05-09T11:53:26.091Z,40.70
2024-05-09T11:55:53.477Z,41.60
2024-05-09T11:58:21.572Z,39.00
2024-05-09T12:00:48.816Z,41.20
2024-05-09T12:03:16.244Z,37.50
2024-05-09T12:05:43.517Z,37.70
2024-05-09T12:08:10.758Z,39.30
2024-05-09T12:10:37.860Z,39.40
2024-05-09T12:13:06.815Z,37.80
2024-05-09T12:15:37.832Z,38.20
2024-05-09T12:18:06.326Z,38.00
2024-05-09T12:20:37.642Z,37.80
2024-05-09T12:23:08.831Z,38.10
2024-05-09T12:25:37.967Z,37.50
2024-05-09T12:28:05.465Z,40.10
2024-05-09T12:30:37.589Z,38.50
2024-05-09T12:33:12.349Z,39.80
2024-05-09T12:35:41.765Z,41.00
2024-05-09T12:38:10.092Z,41.00
2024-05-09T12:40:38.816Z,39.80
2024-05-09T12:43:08.153Z,40.90
2024-05-09T12:45:36.353Z,41.10
2024-05-09T12:48:04.766Z,39.40
2024-05-09T12:50:34.097Z,41.50
2024-05-09T12:53:03.272Z,41.90
2024-05-09T12:55:37.132Z,42.10
2024-05-09T12:58:11.980Z,42.70
2024-05-09T13:00:39.358Z,43.00
2024-05-09T13:03:07.107Z,44.70
2024-05-09T13:05:34.307Z,41.20
2024-05-09T13:08:02.088Z,42.50
2024-05-09T13:10:32.639Z,42.90
2024-05-09T13:13:01.917Z,42.00
2024-05-09T13:15:31.132Z,39.30
2024-05-09T13:18:02.068Z,42.20
2024-05-09T13:20:33.875Z,40.10
2024-05-09T13:23:04.981Z,38.50
2024-05-09T13:25:34.485Z,38.40
2024-05-09T13:28:02.128Z,37.90
2024-05-09T13:30:38.260Z,36.20
2024-05-09T13:33:12.282Z,35.60
2024-05-09T13:35:45.564Z,34.50
2024-05-09T13:38:16.748Z,35.40
2024-05-09T13:40:43.969Z,37.70
2024-05-09T13:43:11.231Z,38.20
2024-05-09T13:45:38.305Z,38.40
2024-05-09T13:48:07.098Z,41.20
2024-05-09T13:50:36.380Z,40.00
2024-05-09T13:53:08.427Z,41.50
2024-05-09T13:55:39.895Z,40.80
2024-05-09T13:58:08.477Z,43.00
2024-05-09T14:00:44.403Z,42.10
2024-05-09T14:03:16.941Z,41.60
2024-05-09T14:05:46.051Z,38.10
2024-05-09T14:08:15.401Z,40.60
2024-05-09T14:10:44.708Z,42.30
2024-05-09T14:13:12.919Z,41.50
2024-05-09T14:15:40.366Z,39.20
2024-05-09T14:18:11.532Z,39.50
2024-05-09T14:20:40.994Z,39.30
2024-05-09T14:23:08.040Z,39.70
2024-05-09T14:25:38.941Z,40.40
2024-05-09T14:28:12.131Z,40.20
2024-05-09T14:30:39.974Z,41.10
2024-05-09T14:33:08.643Z,41.10
2024-05-09T14:35:37.840Z,41.10
2024-05-09T14:38:06.239Z,39.20
2024-05-09T14:43:03.507Z,38.40
2024-05-09T14:45:30.673Z,38.30
2024-05-09T14:47:57.816Z,41.10
2024-05-09T14:50:34.629Z,40.90
2024-05-09T14:53:06.266Z,42.70
2024-05-09T14:55:35.928Z,42.70
2024-05-09T14:58:07.008Z,43.20
2024-05-09T15:00:38.513Z,41.40
2024-05-09T15:03:07.291Z,42.20
2024-05-09T15:05:34.466Z,41.70
2024-05-09T15:08:01.442Z,39.30
2024-05-09T15:10:34.535Z,41.10
2024-05-09T15:13:04.126Z,38.70
2024-05-09T15:15:31.780Z,38.90
2024-05-09T15:17:59.261Z,40.20
2024-05-09T15:20:34.336Z,40.60
2024-05-09T15:23:04.749Z,40.60
2024-05-09T15:25:33.028Z,41.10
2024-05-09T15:28:00.144Z,40.80
2024-05-09T15:30:31.508Z,38.10
2024-05-09T15:33:01.413Z,40.00
2024-05-09T15:35:29.079Z,39.20
2024-05-09T15:37:56.507Z,38.00
2024-05-09T15:40:34.842Z,36.90
2024-05-09T15:43:07.264Z,34.20
2024-05-09T15:45:34.971Z,30.60
2024-05-09T15:48:03.542Z,30.00
2024-05-09T15:50:37.601Z,29.80
2024-05-09T15:53:09.146Z,29.50
2024-05-09T15:55:37.131Z,28.80
2024-05-09T15:58:05.483Z,29.70
2024-05-09T16:00:37.946Z,29.10
2024-05-09T16:03:09.522Z,28.30
2024-05-09T16:05:37.600Z,28.50
2024-05-09T16:08:05.903Z,28.40
2024-05-09T16:10:34.670Z,28.00
2024-05-09T16:13:03.207Z,29.70
2024-05-09T16:15:30.960Z,30.50
2024-05-09T16:18:01.424Z,32.70
2024-05-09T16:20:37.893Z,33.70
2024-05-09T16:23:08.699Z,35.00
2024-05-09T16:25:36.280Z,36.40
2024-05-09T16:28:08.508Z,37.50
2024-05-09T16:30:38.580Z,38.10
2024-05-09T16:33:06.461Z,38.30
2024-05-09T16:35:34.873Z,38.10
2024-05-09T16:38:03.203Z,39.30
2024-05-09T16:40:37.576Z,39.70
2024-05-09T16:43:08.700Z,40.80
2024-05-09T16:45:36.743Z,39.40
2024-05-09T16:48:04.680Z,40.20
2024-05-09T16:50:34.378Z,40.70
2024-05-09T16:53:03.858Z,41.40
2024-05-09T16:55:31.213Z,42.40
2024-05-09T16:57:58.670Z,41.60
2024-05-09T17:00:35.787Z,42.00
2024-05-09T17:03:10.176Z,43.00
2024-05-09T17:05:40.846Z,40.80
2024-05-09T17:08:08.538Z,42.10
2024-05-09T17:10:38.627Z,43.10
2024-05-09T17:13:07.548Z,43.70
2024-05-09T17:15:38.595Z,43.50
2024-05-09T17:18:07.630Z,44.70
2024-05-09T17:20:37.012Z,42.70
2024-05-09T17:23:14.665Z,44.50
2024-05-09T17:25:42.268Z,46.00
2024-05-09T17:28:12.323Z,45.90
2024-05-09T17:30:41.105Z,46.20
2024-05-09T17:33:10.912Z,45.70
2024-05-09T17:35:41.622Z,46.10
2024-05-09T17:38:08.810Z,45.70
2024-05-09T17:40:37.790Z,47.40
2024-05-09T17:43:08.870Z,48.20
2024-05-09T17:45:39.064Z,47.70
2024-05-09T17:48:07.400Z,48.40
2024-05-09T17:50:36.751Z,48.70
2024-05-09T17:53:06.064Z,50.40
2024-05-09T17:55:33.739Z,50.80
2024-05-09T17:58:01.252Z,52.30
2024-05-09T18:00:36.791Z,51.70
2024-05-09T18:03:10.693Z,52.30
2024-05-09T18:05:42.021Z,52.10
2024-05-09T18:08:09.854Z,52.10
2024-05-09T18:10:39.733Z,51.50
2024-05-09T18:13:13.791Z,52.50
2024-05-09T18:15:41.492Z,53.30
2024-05-09T18:18:09.402Z,54.50
2024-05-09T18:20:43.532Z,55.10
2024-05-09T18:23:15.319Z,55.30
2024-05-09T18:25:47.673Z,55.70
2024-05-09T18:28:15.686Z,56.90
2024-05-09T18:30:43.250Z,58.00
2024-05-09T18:33:11.565Z,58.30
2024-05-09T18:35:39.294Z,59.00
2024-05-09T18:38:06.407Z,61.10
2024-05-09T18:40:36.580Z,60.70
2024-05-09T18:43:07.515Z,62.20
2024-05-09T18:45:39.476Z,62.00
2024-05-09T18:48:10.366Z,62.50
2024-05-09T18:50:40.161Z,62.70
2024-05-09T18:53:13.282Z,62.80
2024-05-09T18:55:42.597Z,63.10
2024-05-09T18:58:09.973Z,63.20
2024-05-09T19:00:39.755Z,63.60
2024-05-09T19:03:11.807Z,64.30
2024-05-09T19:05:41.666Z,64.50
2024-05-09T19:08:11.716Z,64.80
2024-05-09T19:10:39.568Z,64.90
2024-05-09T19:13:12.854Z,65.50
2024-05-09T19:15:42.045Z,66.20
2024-05-09T19:18:10.299Z,65.90
2024-05-09T19:20:37.930Z,65.90
2024-05-09T19:23:06.538Z,66.50
2024-05-09T19:25:34.798Z,66.80
2024-05-09T19:28:02.059Z,67.00
2024-05-09T19:30:37.321Z,67.00
2024-05-09T19:33:09.456Z,66.90
2024-05-09T19:35:37.165Z,67.40
2024-05-09T19:38:05.223Z,67.50
2024-05-09T19:40:34.092Z,68.50
2024-05-09T19:43:03.111Z,68.90
2024-05-09T19:45:32.292Z,69.10
2024-05-09T19:50:36.549Z,68.90
2024-05-09T19:53:08.958Z,69.40
2024-05-09T19:55:36.222Z,70.50
2024-05-09T19:58:07.331Z,71.30
2024-05-09T20:00:38.494Z,71.60
2024-05-09T20:03:08.168Z,72.70
2024-05-09T20:05:38.731Z,73.60
2024-05-09T20:08:06.759Z,74.00
2024-05-09T20:10:35.648Z,74.80
2024-05-09T20:13:05.135Z,75.20
2024-05-09T20:15:35.320Z,76.40
2024-05-09T20:18:03.106Z,76.80
2024-05-09T20:20:39.355Z,76.90
2024-05-09T20:23:10.579Z,78.40
2024-05-09T20:25:37.846Z,79.00
2024-05-09T20:28:06.597Z,79.80
2024-05-09T20:30:35.151Z,80.40
2024-05-09T20:33:05.212Z,80.60
2024-05-09T20:35:33.683Z,81.20
2024-05-09T20:38:02.210Z,81.80
2024-05-09T20:40:34.231Z,82.10
2024-05-09T20:43:08.807Z,83.70
2024-05-09T20:45:39.515Z,84.60
2024-05-09T20:50:40.863Z,85.90
2024-05-09T20:53:13.976Z,86.80
2024-05-09T20:55:42.328Z,88.10
2024-05-09T20:58:12.779Z,88.20
2024-05-09T21:00:43.515Z,89.80
2024-05-09T21:03:14.519Z,90.00
2024-05-09T21:05:46.414Z,90.40
2024-05-09T21:08:16.522Z,90.60
2024-05-09T21:10:43.766Z,90.80
2024-05-09T21:13:11.271Z,90.80
2024-05-09T21:15:40.731Z,91.40
2024-05-09T21:18:08.488Z,92.40
2024-05-09T21:20:37.698Z,92.40
2024-05-09T21:23:08.039Z,93.00
2024-05-09T21:25:35.079Z,93.10
2024-05-09T21:28:02.372Z,93.50
2024-05-09T21:30:38.571Z,94.20
2024-05-09T21:33:11.084Z,94.60
2024-05-09T21:35:39.857Z,94.90
2024-05-09T21:38:07.542Z,94.90
2024-05-09T21:40:36.422Z,95.20
2024-05-09T21:43:05.625Z,95.60
2024-05-09T21:45:37.501Z,95.80
2024-05-09T21:48:05.842Z,96.40
2024-05-09T21:50:42.742Z,96.80
2024-05-09T21:53:13.659Z,97.00
2024-05-09T21:55:44.528Z,97.10
2024-05-09T21:58:13.139Z,97.50
2024-05-09T22:00:42.779Z,97.90
2024-05-09T22:03:13.029Z,98.20
2024-05-09T22:05:44.273Z,98.40
2024-05-09T22:08:14.521Z,98.50
2024-05-09T22:10:41.836Z,98.40
2024-05-09T22:13:09.370Z,98.80
2024-05-09T22:15:38.745Z,98.80
2024-05-09T22:18:08.338Z,98.80
2024-05-09T22:20:45.242Z,99.20
2024-05-09T22:23:14.191Z,99.60
2024-05-09T22:25:41.430Z,99.60
2024-05-09T22:28:08.636Z,99.50
2024-05-09T22:30:39.048Z,99.80
2024-05-09T22:33:09.148Z,99.90
2024-05-09T22:35:40.374Z,99.90
2024-05-09T22:38:07.749Z,99.90
2024-05-09T22:40:45.370Z,99.90
2024-05-09T22:43:23.900Z,99.90
2024-05-09T22:45:53.870Z,99.90
2024-05-09T22:48:21.367Z,99.90
2024-05-09T22:50:48.767Z,99.90
2024-05-09T22:53:15.766Z,99.90
2024-05-09T22:55:42.844Z,99.90
2024-05-09T22:58:12.115Z,99.90
2024-05-09T23:00:39.215Z,99.90
2024-05-09T23:05:33.334Z,99.90
2024-05-09T23:08:03.496Z,99.90
2024-05-09T23:10:36.099Z,99.90
2024-05-09T23:13:06.606Z,99.90
2024-05-09T23:15:34.259Z,99.90
2024-05-09T23:18:01.456Z,99.90
2024-05-09T23:20:36.385Z,99.90
2024-05-09T23:23:10.994Z,99.90
2024-05-09T23:25:41.114Z,99.90
2024-05-09T23:28:08.372Z,99.90
2024-05-09T23:30:39.022Z,99.90
2024-05-09T23:33:10.017Z,99.90
2024-05-09T23:35:37.280Z,99.90
2024-05-09T23:38:04.695Z,99.90
2024-05-09T23:43:01.679Z,99.90
2024-05-09T23:45:28.951Z,99.90
2024-05-09T23:47:56.153Z,99.90
2024-05-09T23:50:33.571Z,99.90
2024-05-09T23:53:08.074Z,99.90
2024-05-09T23:55:36.636Z,99.90
2024-05-09T23:58:04.034Z,99.90
